createdAt,value
2023-03-06T00:02:38.343Z,99.90
2023-03-06T00:07:41.658Z,99.90
2023-03-06T00:12:44.341Z,99.90
2023-03-06T00:17:47.057Z,99.90
2023-03-06T00:22:50.382Z,99.90
2023-03-06T00:27:53.360Z,99.90
2023-03-06T00:32:56.160Z,99.90
2023-03-06T00:37:59.998Z,99.90
2023-03-06T00:43:02.861Z,99.90
2023-03-06T00:48:06.090Z,99.90
2023-03-06T00:53:08.691Z,99.90
2023-03-06T00:58:11.493Z,99.90
2023-03-06T01:03:14.320Z,99.90
2023-03-06T01:08:16.991Z,99.90
2023-03-06T01:13:19.684Z,99.90
2023-03-06T01:18:22.419Z,99.90
2023-03-06T01:23:25.062Z,99.90
2023-03-06T01:28:28.458Z,99.90
2023-03-06T01:33:31.584Z,99.90
2023-03-06T01:38:35.727Z,99.90
2023-03-06T01:43:42.615Z,99.90
2023-03-06T01:48:47.292Z,99.90
2023-03-06T01:53:51.318Z,99.90
2023-03-06T01:58:54.351Z,99.90
2023-03-06T02:03:57.050Z,99.90
2023-03-06T02:08:59.662Z,99.90
2023-03-06T02:14:02.804Z,99.90
2023-03-06T02:19:09.477Z,99.90
2023-03-06T02:24:32.623Z,99.90
2023-03-06T02:29:35.502Z,99.90
2023-03-06T02:34:39.065Z,99.90
2023-03-06T02:39:47.296Z,99.90
2023-03-06T02:44:51.664Z,99.90
2023-03-06T02:49:54.358Z,99.90
2023-03-06T02:54:57.033Z,99.90
2023-03-06T02:59:59.588Z,99.90
2023-03-06T03:05:02.738Z,99.90
2023-03-06T03:10:06.838Z,99.90
2023-03-06T03:15:10.507Z,99.90
2023-03-06T03:20:16.692Z,99.90
2023-03-06T03:25:20.424Z,99.90
2023-03-06T03:30:23.661Z,99.90
2023-03-06T03:35:26.633Z,99.90
2023-03-06T03:40:29.977Z,99.90
2023-03-06T03:45:34.924Z,99.90
2023-03-06T03:50:38.323Z,99.90
2023-03-06T03:55:41.367Z,99.90
2023-03-06T04:00:44.399Z,99.90
2023-03-06T04:05:50.027Z,99.90
2023-03-06T04:10:53.810Z,99.90
2023-03-06T04:15:57.301Z,99.90
2023-03-06T04:21:00.125Z,99.90
2023-03-06T04:26:03.887Z,99.90
2023-03-06T04:31:06.800Z,99.90
2023-03-06T04:36:25.588Z,99.90
2023-03-06T04:41:30.892Z,99.90
2023-03-06T04:46:34.804Z,99.90
2023-03-06T04:51:37.546Z,99.90
2023-03-06T04:56:40.253Z,99.90
2023-03-06T05:01:43.063Z,99.90
2023-03-06T05:06:45.603Z,99.90
2023-03-06T05:11:48.183Z,99.90
2023-03-06T05:16:50.815Z,99.90
2023-03-06T05:21:53.456Z,99.90
2023-03-06T05:26:56.009Z,99.90
2023-03-06T05:31:59.166Z,99.90
2023-03-06T05:37:02.103Z,99.90
2023-03-06T05:42:04.855Z,99.90
2023-03-06T05:47:08.916Z,99.90
2023-03-06T05:52:13.518Z,99.90
2023-03-06T05:57:16.048Z,99.90
2023-03-06T06:02:19.400Z,99.90
2023-03-06T06:07:22.025Z,99.90
2023-03-06T06:12:25.020Z,99.90
2023-03-06T06:17:27.681Z,99.90
2023-03-06T06:22:30.384Z,99.90
2023-03-06T06:27:33.285Z,99.90
2023-03-06T06:32:36.796Z,99.90
2023-03-06T06:37:39.516Z,99.90
2023-03-06T06:42:42.880Z,99.90
2023-03-06T06:47:46.404Z,99.90
2023-03-06T06:52:50.443Z,99.90
2023-03-06T06:57:53.618Z,99.90
2023-03-06T07:02:56.422Z,99.90
2023-03-06T07:07:59.385Z,99.90
2023-03-06T07:13:02.641Z,99.90
2023-03-06T07:18:05.476Z,99.90
2023-03-06T07:23:11.892Z,99.90
2023-03-06T07:28:14.879Z,99.90
2023-03-06T07:33:18.164Z,99.90
2023-03-06T07:38:20.975Z,99.90
2023-03-06T07:43:23.763Z,99.90
2023-03-06T07:48:36.168Z,99.90
2023-03-06T07:53:38.891Z,99.90
2023-03-06T07:58:44.141Z,99.90
2023-03-06T08:03:47.627Z,99.90
2023-03-06T08:08:52.075Z,99.90
2023-03-06T08:13:56.129Z,99.90
2023-03-06T08:18:59.107Z,99.90
2023-03-06T08:24:01.934Z,99.90
2023-03-06T08:29:04.765Z,99.90
2023-03-06T08:34:10.177Z,99.90
2023-03-06T08:39:14.451Z,99.90
2023-03-06T08:44:17.384Z,99.90
2023-03-06T08:49:20.140Z,97.40
2023-03-06T08:54:22.779Z,90.20
2023-03-06T08:59:25.601Z,75.50
2023-03-06T09:04:31.520Z,61.90
2023-03-06T09:09:34.192Z,51.30
2023-03-06T09:14:36.971Z,44.40
2023-03-06T09:19:39.699Z,33.60
2023-03-06T09:24:42.696Z,34.30
2023-03-06T09:29:45.550Z,26.10
2023-03-06T09:34:48.536Z,27.20
2023-03-06T09:39:51.206Z,26.10
2023-03-06T09:45:00.981Z,25.80
2023-03-06T09:50:06.737Z,25.50
2023-03-06T09:55:17.852Z,26.40
2023-03-06T10:00:26.724Z,24.20
2023-03-06T10:06:15.278Z,26.80
2023-03-06T10:11:25.323Z,24.30
2023-03-06T10:16:29.718Z,28.20
2023-03-06T10:21:54.243Z,26.80
2023-03-06T10:27:11.236Z,26.60
2023-03-06T10:32:26.086Z,21.20
2023-03-06T10:37:31.630Z,23.20
2023-03-06T10:42:35.196Z,22.70
2023-03-06T10:47:38.804Z,26.60
2023-03-06T10:52:41.474Z,22.90
2023-03-06T10:57:44.139Z,21.70
2023-03-06T11:02:46.960Z,25.40
2023-03-06T11:07:59.545Z,21.50
2023-03-06T11:13:19.270Z,23.10
2023-03-06T11:18:28.827Z,23.50
2023-03-06T11:23:46.886Z,25.50
2023-03-06T11:29:04.066Z,21.30
2023-03-06T11:34:18.984Z,24.20
2023-03-06T11:39:53.602Z,25.70
2023-03-06T11:45:20.143Z,27.20
2023-03-06T11:50:39.377Z,25.30
2023-03-06T11:56:00.573Z,25.70
2023-03-06T12:01:13.737Z,29.70
2023-03-06T12:06:30.235Z,30.60
2023-03-06T12:11:40.540Z,33.70
2023-03-06T12:17:12.984Z,35.00
2023-03-06T12:22:31.286Z,35.10
2023-03-06T12:27:58.668Z,35.80
2023-03-06T12:33:28.561Z,36.30
2023-03-06T12:38:43.340Z,38.70
2023-03-06T12:43:52.195Z,38.60
2023-03-06T12:49:11.190Z,37.00
2023-03-06T12:54:15.576Z,37.60
2023-03-06T12:59:37.360Z,37.40
2023-03-06T13:05:10.688Z,39.80
2023-03-06T13:10:34.065Z,38.40
2023-03-06T13:15:40.009Z,39.80
2023-03-06T13:20:45.179Z,36.60
2023-03-06T13:25:50.486Z,38.60
2023-03-06T13:30:53.477Z,39.30
2023-03-06T13:36:19.512Z,38.10
2023-03-06T13:41:25.325Z,38.80
2023-03-06T13:46:37.774Z,39.50
2023-03-06T13:51:52.921Z,39.60
2023-03-06T13:57:13.510Z,43.70
2023-03-06T14:02:48.120Z,54.30
2023-03-06T14:08:11.140Z,66.10
2023-03-06T14:13:34.939Z,81.20
2023-03-06T14:18:47.336Z,92.60
2023-03-06T14:24:01.817Z,94.30
2023-03-06T14:29:05.419Z,97.90
2023-03-06T14:34:15.495Z,99.20
2023-03-06T14:39:45.774Z,99.30
2023-03-06T14:44:59.948Z,97.70
2023-03-06T14:50:25.268Z,97.20
2023-03-06T14:55:30.277Z,96.10
2023-03-06T15:00:41.088Z,96.30
2023-03-06T15:05:46.906Z,96.60
2023-03-06T15:11:04.404Z,95.90
2023-03-06T15:16:30.156Z,92.70
2023-03-06T15:21:38.082Z,93.70
2023-03-06T15:26:41.373Z,93.90
2023-03-06T15:31:45.977Z,91.80
2023-03-06T15:36:51.680Z,90.70
2023-03-06T15:42:14.835Z,84.70
2023-03-06T15:47:17.800Z,84.20
2023-03-06T15:52:24.073Z,86.40
2023-03-06T15:57:31.296Z,78.10
2023-03-06T16:02:34.181Z,73.10
2023-03-06T16:07:37.208Z,73.40
2023-03-06T16:12:40.817Z,64.20
2023-03-06T16:17:43.515Z,59.10
2023-03-06T16:22:47.904Z,58.90
2023-03-06T16:27:59.762Z,61.30
2023-03-06T16:33:03.762Z,62.80
2023-03-06T16:38:06.595Z,62.20
2023-03-06T16:43:10.852Z,62.10
2023-03-06T16:48:17.408Z,64.40
2023-03-06T16:53:20.108Z,66.80
2023-03-06T16:58:23.024Z,69.60
2023-03-06T17:03:26.074Z,73.60
2023-03-06T17:08:28.984Z,79.40
2023-03-06T17:13:31.923Z,84.50
2023-03-06T17:18:34.765Z,90.70
2023-03-06T17:23:38.366Z,99.80
2023-03-06T17:28:41.943Z,99.90
2023-03-06T17:33:45.156Z,99.90
2023-03-06T17:38:47.922Z,99.90
2023-03-06T17:43:51.896Z,99.90
2023-03-06T17:48:55.736Z,99.90
2023-03-06T17:53:58.675Z,99.90
2023-03-06T17:59:01.659Z,99.90
2023-03-06T18:04:05.841Z,99.90
2023-03-06T18:09:10.283Z,99.90
2023-03-06T18:14:13.173Z,99.90
2023-03-06T18:19:16.731Z,99.90
2023-03-06T18:24:19.573Z,99.90
2023-03-06T18:29:22.530Z,99.90
2023-03-06T18:34:25.652Z,99.90
2023-03-06T18:39:28.585Z,99.90
2023-03-06T18:44:31.392Z,99.90
2023-03-06T18:49:34.153Z,99.90
2023-03-06T18:54:37.091Z,99.90
2023-03-06T18:59:40.024Z,99.90
2023-03-06T19:04:42.705Z,99.90
2023-03-06T19:09:47.868Z,99.90
2023-03-06T19:14:50.929Z,99.90
2023-03-06T19:19:55.450Z,99.90
2023-03-06T19:24:58.372Z,99.90
2023-03-06T19:30:01.218Z,99.90
2023-03-06T19:35:05.776Z,99.90
2023-03-06T19:40:09.641Z,99.90
2023-03-06T19:45:12.751Z,99.90
2023-03-06T19:50:15.872Z,99.90
2023-03-06T19:55:18.656Z,99.90
2023-03-06T20:00:21.689Z,99.90
2023-03-06T20:05:24.429Z,99.90
2023-03-06T20:10:27.286Z,99.90
2023-03-06T20:15:30.251Z,99.90
2023-03-06T20:20:33.155Z,99.90
2023-03-06T20:25:36.961Z,99.90
2023-03-06T20:30:39.680Z,99.90
2023-03-06T20:35:43.715Z,99.90
2023-03-06T20:40:46.761Z,99.90
2023-03-06T20:46:03.442Z,99.90
2023-03-06T20:51:28.877Z,99.90
2023-03-06T20:56:34.403Z,99.90
2023-03-06T21:01:41.353Z,99.90
2023-03-06T21:06:47.111Z,99.90
2023-03-06T21:11:50.158Z,99.90
2023-03-06T21:16:52.909Z,99.90
2023-03-06T21:21:55.835Z,99.90
2023-03-06T21:26:58.528Z,99.90
2023-03-06T21:32:01.437Z,99.90
2023-03-06T21:37:04.377Z,99.90
2023-03-06T21:42:07.253Z,99.90
2023-03-06T21:47:09.925Z,99.90
2023-03-06T21:52:13.044Z,99.90
2023-03-06T21:57:15.775Z,99.90
2023-03-06T22:02:18.363Z,99.90
2023-03-06T22:07:21.765Z,99.90
2023-03-06T22:12:24.776Z,99.90
2023-03-06T22:17:27.558Z,99.90
2023-03-06T22:22:31.319Z,99.90
2023-03-06T22:27:33.920Z,99.90
2023-03-06T22:32:36.520Z,99.90
2023-03-06T22:37:39.153Z,99.90
2023-03-06T22:42:41.773Z,99.90
2023-03-06T22:47:44.589Z,99.90
2023-03-06T22:52:47.320Z,99.90
2023-03-06T22:57:50.362Z,99.90
2023-03-06T23:02:53.077Z,99.90
2023-03-06T23:07:55.611Z,99.90
2023-03-06T23:12:58.197Z,99.90
2023-03-06T23:18:19.573Z,99.90
2023-03-06T23:23:41.506Z,99.90
2023-03-06T23:28:45.053Z,99.90
2023-03-06T23:33:48.244Z,99.90
2023-03-06T23:38:50.920Z,99.90
2023-03-06T23:43:55.123Z,99.90
2023-03-06T23:48:57.917Z,99.90
2023-03-06T23:54:01.238Z,99.90
2023-03-06T23:59:03.916Z,99.90
